Time;durP1;ratioP1;P1;durP2;ratioP2;P2;SDS_P1;SDS_P2;PMS_P1;PMS_P2;Temp;Humidity;BMP_temperature;BMP_pressure;BME280_temperature;BME280_humidity;BME280_pressure;Samples;Min_cycle;Max_cycle;Signal;HPM_P1;HPM_P2
2022/02/05 00:00:34;;;;;;;25.30;14.30;;;;;;;4.44;86.42;99444.33;88288;1273;99369;-61
2022/02/05 00:02:57;;;;;;;25.00;15.10;;;;;;;4.50;86.20;99439.48;88250;1273;88872;-61
2022/02/05 00:05:14;;;;;;;24.90;15.30;;;;;;;4.52;86.18;99439.09;88257;1273;95602;-61
2022/02/05 00:07:30;;;;;;;26.00;15.80;;;;;;;4.51;86.05;99440.52;88268;1273;78027;-62
2022/02/05 00:09:56;;;;;;;25.00;15.10;;;;;;;4.48;86.05;99437.96;88272;1273;83829;-61
2022/02/05 00:12:21;;;;;;;25.40;14.80;;;;;;;4.48;86.02;99437.39;88255;1273;97319;-62
2022/02/05 00:39:49;;;;;;;26.40;17.50;;;;;;;4.46;85.30;99413.20;88268;1273;88905;-61
2022/02/05 00:42:09;;;;;;;29.10;15.10;;;;;;;4.38;85.38;99416.29;88228;1273;95132;-61
2022/02/05 00:44:21;;;;;;;27.40;15.40;;;;;;;4.36;85.49;99408.47;88237;1273;79276;-61
2022/02/05 00:46:38;;;;;;;26.40;16.20;;;;;;;4.35;85.51;99405.11;88253;1273;81670;-61
2022/02/05 00:48:50;;;;;;;25.20;15.20;;;;;;;4.36;85.52;99400.34;88272;1273;97386;-61
2022/02/05 00:51:10;;;;;;;24.30;15.40;;;;;;;4.38;85.47;99396.50;88241;1273;88875;-62
2022/02/05 00:53:28;;;;;;;24.50;15.40;;;;;;;4.40;85.31;99389.70;88268;1273;94251;-61
2022/02/05 00:55:47;;;;;;;25.10;15.10;;;;;;;4.45;85.41;99392.89;88252;1273;81459;-61
2022/02/05 00:58:02;;;;;;;23.90;15.80;;;;;;;4.48;85.44;99390.02;88262;1273;82255;-62
2022/02/05 01:00:17;;;;;;;26.20;15.60;;;;;;;4.51;85.32;99390.88;88228;1274;98677;-63
2022/02/05 01:02:29;;;;;;;25.40;17.00;;;;;;;4.47;85.33;99391.20;88293;1274;89581;-62
2022/02/05 01:04:40;;;;;;;28.50;17.90;;;;;;;4.50;85.30;99396.40;88266;1274;94480;-60
2022/02/05 01:06:50;;;;;;;31.60;18.50;;;;;;;4.51;85.16;99398.77;88277;1273;77483;-64
2022/02/05 01:09:04;;;;;;;28.30;17.10;;;;;;;4.47;85.09;99393.54;88275;1274;82394;-68
2022/02/05 01:11:13;;;;;;;28.10;17.00;;;;;;;4.44;85.16;99390.69;88252;1273;98288;-67
2022/02/05 01:13:28;;;;;;;24.80;17.00;;;;;;;4.42;85.07;99382.97;88279;1274;89341;-66
2022/02/05 01:15:42;;;;;;;22.70;15.30;;;;;;;4.41;85.11;99380.16;88233;1273;95551;-65
2022/02/05 01:17:59;;;;;;;26.20;15.80;;;;;;;4.40;85.25;99383.06;88145;1274;79714;-63
2022/02/05 01:22:39;;;;;;;30.10;16.20;;;;;;;4.47;85.30;99375.11;88199;1274;98171;-69
2022/02/05 01:24:51;;;;;;;27.70;16.30;;;;;;;4.52;84.80;99367.98;88176;1274;88292;-70
2022/02/05 01:27:04;;;;;;;24.10;14.60;;;;;;;4.54;85.08;99365.05;88167;1274;95642;-68
2022/02/05 01:29:25;;;;;;;24.30;16.20;;;;;;;4.55;84.89;99360.48;88172;1274;77115;-62
2022/02/05 01:31:40;;;;;;;26.20;16.80;;;;;;;4.48;85.08;99362.62;88182;1274;82936;-62
2022/02/05 01:34:05;;;;;;;26.20;17.20;;;;;;;4.46;84.88;99360.05;88190;1274;97783;-62
2022/02/05 01:36:31;;;;;;;20.80;14.90;;;;;;;4.45;84.91;99353.15;88203;1274;88236;-61
2022/02/05 01:49:13;;;;;;;25.60;15.20;;;;;;;4.54;84.99;99343.06;88167;1274;88001;-61
2022/02/05 01:54:13;;;;;;;28.40;16.60;;;;;;;4.62;84.93;99334.38;88171;1274;78619;-70
2022/02/05 01:56:33;;;;;;;31.60;17.30;;;;;;;4.61;84.66;99332.85;88200;1274;83440;-68
2022/02/05 01:59:08;;;;;;;23.70;15.40;;;;;;;4.59;84.68;99329.19;88184;1274;98945;-68
2022/02/05 02:06:15;;;;;;;25.40;16.40;;;;;;;4.40;84.80;99317.02;88171;1274;79345;-68
2022/02/05 02:16:04;;;;;;;21.80;13.40;;;;;;;4.45;84.60;99297.66;87996;1275;94598;-69
2022/02/05 02:18:25;;;;;;;20.10;14.00;;;;;;;4.46;84.99;99293.23;88164;1274;81565;-68
2022/02/05 02:20:59;;;;;;;24.10;15.00;;;;;;;4.50;84.89;99294.92;88190;1274;81753;-69
2022/02/05 02:23:20;;;;;;;22.70;13.60;;;;;;;4.52;84.56;99294.33;88223;1274;96557;-68
2022/02/05 02:25:42;;;;;;;25.70;15.60;;;;;;;4.53;84.70;99291.89;88178;1274;88121;-68
2022/02/05 02:28:01;;;;;;;22.60;15.50;;;;;;;4.53;84.66;99292.05;88204;1274;93399;-62
2022/02/05 02:30:17;;;;;;;25.20;16.60;;;;;;;4.51;84.52;99288.58;88202;1274;77521;-62
2022/02/05 02:32:27;;;;;;;24.20;14.10;;;;;;;4.49;84.67;99288.08;88181;1274;81534;-62
2022/02/05 02:34:42;;;;;;;21.80;13.90;;;;;;;4.48;84.29;99287.10;88193;1274;99476;-61
2022/02/05 02:36:55;;;;;;;22.50;13.90;;;;;;;4.50;84.27;99288.56;88185;1274;88545;-61
2022/02/05 02:39:11;;;;;;;21.60;13.10;;;;;;;4.50;84.51;99284.05;88193;1274;95844;-62
2022/02/05 02:41:28;;;;;;;22.50;12.50;;;;;;;4.54;84.66;99283.35;88186;1274;81276;-62
2022/02/05 02:43:40;;;;;;;19.20;12.50;;;;;;;4.57;84.40;99280.92;88213;1274;82241;-62
2022/02/05 02:45:49;;;;;;;20.80;12.90;;;;;;;4.61;84.38;99282.40;88199;1274;98722;-62
2022/02/05 02:48:00;;;;;;;21.00;12.60;;;;;;;4.64;84.44;99278.66;88214;1274;86423;-61
2022/02/05 02:50:17;;;;;;;20.70;13.00;;;;;;;4.66;84.36;99271.29;88175;1274;94027;-61
2022/02/05 02:57:22;;;;;;;21.90;13.70;;;;;;;4.61;84.11;99259.91;88197;1274;99267;-61
2022/02/05 02:59:46;;;;;;;19.10;13.20;;;;;;;4.59;83.96;99258.45;88205;1274;89143;-61
2022/02/05 03:01:59;;;;;;;;;;;;;;;4.55;84.16;99256.48;88201;1274;95789;-62
2022/02/05 03:04:08;;;;;;;19.50;11.80;;;;;;;4.54;84.15;99255.04;88178;1274;79703;-61
2022/02/05 03:06:17;;;;;;;19.10;11.30;;;;;;;4.56;84.05;99255.39;88211;1274;80140;-61
2022/02/05 03:08:26;;;;;;;17.20;11.00;;;;;;;4.58;84.05;99254.58;88167;1274;98782;-62
2022/02/05 03:10:35;;;;;;;20.60;10.90;;;;;;;4.62;84.03;99254.27;88185;1274;88181;-63
2022/02/05 03:12:44;;;;;;;16.60;9.60;;;;;;;4.67;84.25;99251.90;88197;1274;94316;-61
2022/02/05 03:14:54;;;;;;;17.40;10.90;;;;;;;4.68;84.00;99254.59;88201;1274;78030;-61
2022/02/05 03:17:14;;;;;;;18.60;11.50;;;;;;;4.72;84.10;99251.19;88192;1274;81002;-61
2022/02/05 03:19:23;;;;;;;18.50;11.30;;;;;;;4.74;84.13;99257.13;88191;1274;99006;-68
2022/02/05 03:21:32;;;;;;;17.50;10.80;;;;;;;4.73;84.10;99254.85;88200;1274;88094;-68
2022/02/05 03:23:41;;;;;;;18.00;11.10;;;;;;;4.74;84.33;99251.81;88190;1274;95597;-62
2022/02/05 03:25:49;;;;;;;15.30;10.30;;;;;;;4.72;84.51;99250.25;88148;1274;79008;-60
2022/02/05 03:27:59;;;;;;;15.20;10.10;;;;;;;4.70;84.44;99248.16;88186;1274;80434;-60
2022/02/05 03:30:09;;;;;;;16.10;10.30;;;;;;;4.71;84.53;99245.74;88177;1274;99240;-60
2022/02/05 03:32:20;;;;;;;15.80;10.00;;;;;;;4.69;84.64;99242.73;88235;1274;89421;-68
2022/02/05 03:34:28;;;;;;;16.40;10.50;;;;;;;4.73;84.79;99239.27;88188;1274;94271;-69
2022/02/05 03:36:40;;;;;;;15.30;10.20;;;;;;;4.73;84.91;99241.05;88163;1274;80159;-69
2022/02/05 03:38:49;;;;;;;15.70;10.20;;;;;;;4.72;84.98;99240.08;88210;1274;83447;-68
2022/02/05 03:40:57;;;;;;;15.50;9.70;;;;;;;4.73;85.05;99240.45;88184;1274;97546;-69
2022/02/05 03:43:06;;;;;;;17.70;10.60;;;;;;;4.76;85.12;99236.54;88192;1274;86507;-68
2022/02/05 03:45:16;;;;;;;17.30;9.70;;;;;;;4.77;85.13;99229.52;88188;1274;92558;-68
2022/02/05 03:47:30;;;;;;;14.10;9.30;;;;;;;4.80;85.16;99228.31;88179;1274;79786;-68
2022/02/05 03:49:38;;;;;;;14.80;10.00;;;;;;;4.83;85.04;99229.86;88179;1274;82586;-69
2022/02/05 03:51:48;;;;;;;14.70;9.40;;;;;;;4.84;85.08;99228.55;88194;1274;98327;-67
2022/02/05 03:53:57;;;;;;;13.60;8.00;;;;;;;4.88;84.96;99226.40;88209;1274;88673;-61
2022/02/05 03:56:06;;;;;;;15.40;9.00;;;;;;;4.92;85.03;99217.19;88175;1274;95080;-60
2022/02/05 03:58:15;;;;;;;14.20;9.60;;;;;;;4.94;85.15;99217.48;88195;1274;78238;-68
2022/02/05 04:00:25;;;;;;;13.50;8.50;;;;;;;4.97;84.90;99221.27;88198;1274;81022;-67
2022/02/05 04:02:34;;;;;;;12.40;9.10;;;;;;;4.97;84.98;99221.55;88206;1274;96453;-62
2022/02/05 04:04:43;;;;;;;11.30;8.50;;;;;;;4.94;84.78;99215.63;88210;1274;88986;-61
2022/02/05 04:06:53;;;;;;;12.20;8.60;;;;;;;4.90;84.54;99218.18;88201;1274;94175;-61
2022/02/05 04:09:06;;;;;;;12.60;8.60;;;;;;;4.82;84.92;99217.00;88190;1274;79504;-68
2022/02/05 04:11:30;;;;;;;12.20;8.10;;;;;;;4.77;84.84;99217.54;88203;1274;83957;-67
2022/02/05 04:16:21;;;;;;;11.70;7.50;;;;;;;4.75;85.04;99207.97;88183;1274;86784;-60
2022/02/05 04:18:30;;;;;;;13.00;8.00;;;;;;;4.81;85.15;99204.96;88143;1274;91752;-68
2022/02/05 04:20:44;;;;;;;11.10;7.30;;;;;;;4.84;85.20;99201.21;88178;1274;81651;-68
2022/02/05 04:22:53;;;;;;;10.30;6.80;;;;;;;4.88;85.34;99198.45;88223;1274;81062;-61
2022/02/05 04:25:02;;;;;;;12.70;6.60;;;;;;;4.92;85.13;99202.25;88201;1274;96857;-61
2022/02/05 04:27:13;;;;;;;9.70;7.10;;;;;;;4.90;85.12;99194.39;88178;1274;88016;-67
2022/02/05 04:29:22;;;;;;;10.60;7.00;;;;;;;4.97;85.08;99197.02;88179;1274;95084;-68
2022/02/05 04:31:31;;;;;;;11.50;6.70;;;;;;;5.02;85.10;99194.35;88215;1274;78343;-68
2022/02/05 04:33:40;;;;;;;12.40;7.10;;;;;;;5.02;84.94;99195.75;88206;1274;82256;-61
2022/02/05 04:35:49;;;;;;;11.30;6.80;;;;;;;5.06;84.81;99196.04;88204;1274;98736;-61
2022/02/05 04:38:00;;;;;;;10.70;7.20;;;;;;;5.05;84.81;99199.34;88147;1276;86671;-61
2022/02/05 04:40:24;;;;;;;7.20;5.80;;;;;;;5.04;84.84;99198.77;88190;1274;93956;-61
2022/02/05 04:42:43;;;;;;;9.90;5.70;;;;;;;5.03;84.77;99202.23;88184;1274;80257;-68
2022/02/05 04:45:17;;;;;;;9.40;5.80;;;;;;;5.03;84.68;99205.28;88197;1274;80752;-67
2022/02/05 04:47:53;;;;;;;9.30;5.50;;;;;;;5.07;84.91;99208.79;88188;1274;99218;-62
2022/02/05 04:52:51;;;;;;;6.60;3.50;;;;;;;5.12;84.45;99227.02;88074;1274;93546;-66
2022/02/05 04:55:28;;;;;;;3.90;2.60;;;;;;;5.10;84.53;99243.84;88158;1274;80750;-68
2022/02/05 05:00:09;;;;;;;1.70;1.10;;;;;;;5.03;84.06;99260.80;88159;1274;99404;-60
2022/02/05 05:02:37;;;;;;;1.30;0.70;;;;;;;4.98;83.93;99269.74;88199;1274;87889;-67
2022/02/05 05:04:52;;;;;;;0.60;0.60;;;;;;;4.88;83.32;99284.59;88182;1274;94212;-68
2022/02/05 05:09:34;;;;;;;1.30;0.60;;;;;;;4.73;83.07;99306.31;88198;1274;84202;-67
2022/02/05 05:19:35;;;;;;;0.60;0.60;;;;;;;4.37;83.07;99335.80;88075;1276;78575;-61
2022/02/05 05:21:44;;;;;;;0.80;0.50;;;;;;;4.28;83.21;99339.64;88052;1276;80542;-61
2022/02/05 05:23:54;;;;;;;0.40;0.40;;;;;;;4.25;83.35;99354.15;88069;1276;98234;-67
2022/02/05 05:26:03;;;;;;;0.50;0.50;;;;;;;4.19;83.59;99361.46;88193;1274;86717;-67
2022/02/05 05:28:13;;;;;;;0.70;0.40;;;;;;;4.15;83.66;99381.82;88212;1274;96251;-67
2022/02/05 05:30:22;;;;;;;0.50;0.50;;;;;;;4.06;83.66;99381.83;88185;1272;77474;-68
2022/02/05 05:32:32;;;;;;;3.40;2.10;;;;;;;3.89;83.97;99402.95;88219;1274;81398;-62
2022/02/05 05:34:45;;;;;;;1.20;0.70;;;;;;;3.82;84.27;99396.66;88209;1274;98175;-61
2022/02/05 05:36:58;;;;;;;1.40;1.10;;;;;;;3.76;84.12;99412.64;88211;1274;88334;-63
2022/02/05 05:39:10;;;;;;;1.00;0.70;;;;;;;3.65;84.16;99425.98;88230;1274;93986;-68
2022/02/05 05:41:19;;;;;;;0.80;0.60;;;;;;;3.62;84.12;99424.04;88185;1274;82385;-67
2022/02/05 05:43:40;;;;;;;1.20;0.70;;;;;;;3.58;84.29;99429.25;88205;1274;82267;-62
2022/02/05 05:46:14;;;;;;;1.30;0.60;;;;;;;3.57;84.03;99443.20;88199;1274;98072;-62
2022/02/05 05:48:30;;;;;;;1.60;1.00;;;;;;;3.51;84.08;99458.02;88205;1274;89616;-69
2022/02/05 05:50:59;;;;;;;1.70;0.70;;;;;;;3.46;84.05;99466.20;88191;1274;95728;-68
2022/02/05 05:53:11;;;;;;;1.60;0.90;;;;;;;3.54;84.24;99472.21;88175;1274;79326;-63
2022/02/05 05:55:20;;;;;;;0.70;0.70;;;;;;;3.52;84.10;99482.63;88218;1274;81120;-62
2022/02/05 05:57:32;;;;;;;1.10;0.40;;;;;;;3.56;84.22;99488.52;88160;1274;98318;-62
2022/02/05 05:59:42;;;;;;;1.60;0.70;;;;;;;3.56;84.00;99493.58;88206;1274;87102;-62
2022/02/05 06:01:51;;;;;;;0.90;0.50;;;;;;;3.53;83.69;99504.88;88212;1274;95299;-61
2022/02/05 06:04:00;;;;;;;0.60;0.50;;;;;;;3.49;83.48;99506.25;88219;1274;77563;-62
2022/02/05 06:06:09;;;;;;;1.20;0.60;;;;;;;3.45;83.21;99509.18;88200;1274;83110;-61
2022/02/05 06:08:19;;;;;;;1.20;0.60;;;;;;;3.42;83.23;99522.50;88226;1274;97788;-68
2022/02/05 06:10:28;;;;;;;1.00;0.50;;;;;;;3.39;83.31;99530.46;88187;1272;88465;-68
2022/02/05 06:12:37;;;;;;;0.40;0.40;;;;;;;3.36;83.42;99538.31;88186;1274;95444;-67
2022/02/05 06:14:47;;;;;;;1.10;0.50;;;;;;;3.35;83.35;99537.27;88176;1274;81444;-68
2022/02/05 06:17:02;;;;;;;2.00;0.90;;;;;;;3.34;83.55;99551.46;88190;1274;82866;-68
2022/02/05 06:19:11;;;;;;;2.00;0.70;;;;;;;3.35;83.52;99563.36;88173;1274;98997;-67
2022/02/05 06:21:21;;;;;;;1.40;0.70;;;;;;;3.32;83.58;99568.13;88195;1274;87597;-67
2022/02/05 06:23:33;;;;;;;1.30;0.80;;;;;;;3.34;83.75;99572.67;88177;1274;94018;-68
2022/02/05 06:25:43;;;;;;;1.20;1.00;;;;;;;3.33;83.66;99572.10;88175;1274;78918;-68
2022/02/05 06:27:52;;;;;;;1.40;0.70;;;;;;;3.34;83.86;99574.10;88189;1274;82470;-68
2022/02/05 06:30:01;;;;;;;1.30;0.80;;;;;;;3.34;83.68;99582.11;88200;1273;98215;-68
2022/02/05 06:32:15;;;;;;;1.50;0.80;;;;;;;3.36;83.76;99588.45;88178;1274;89598;-65
2022/02/05 06:34:24;;;;;;;2.30;1.00;;;;;;;3.35;84.04;99594.86;88190;1274;94432;-61
2022/02/05 06:36:36;;;;;;;1.30;0.80;;;;;;;3.37;84.01;99602.23;88183;1274;79046;-62
2022/02/05 06:38:47;;;;;;;2.50;1.10;;;;;;;3.39;84.08;99606.78;88188;1274;83351;-68
2022/02/05 06:40:56;;;;;;;1.80;1.00;;;;;;;3.43;83.95;99615.30;88211;1274;99336;-67
2022/02/05 06:43:05;;;;;;;1.30;1.10;;;;;;;3.45;83.83;99611.20;88185;1273;87883;-69
2022/02/05 06:45:15;;;;;;;3.00;1.00;;;;;;;3.46;83.97;99621.73;88140;1274;94382;-68
2022/02/05 06:47:24;;;;;;;2.50;1.00;;;;;;;3.47;84.06;99625.52;88201;1274;78132;-67
2022/02/05 06:49:37;;;;;;;4.90;1.00;;;;;;;3.54;84.02;99624.21;88231;1274;82001;-68
2022/02/05 06:51:46;;;;;;;3.20;1.20;;;;;;;3.57;84.10;99628.05;88187;1274;97499;-69
2022/02/05 06:53:54;;;;;;;2.20;1.20;;;;;;;3.60;83.93;99636.63;88216;1274;87886;-68
2022/02/05 06:56:04;;;;;;;3.20;1.30;;;;;;;3.65;83.93;99635.78;88192;1274;96117;-68
2022/02/05 06:58:12;;;;;;;3.20;1.70;;;;;;;3.65;83.56;99637.91;88177;1274;78981;-62
2022/02/05 07:00:22;;;;;;;2.00;1.00;;;;;;;3.62;83.23;99648.65;88219;1272;82071;-61
2022/02/05 07:02:31;;;;;;;2.90;1.30;;;;;;;3.61;83.27;99658.42;88197;1274;98092;-62
2022/02/05 07:04:45;;;;;;;2.80;1.70;;;;;;;3.62;83.22;99659.58;88236;1274;88254;-61
2022/02/05 07:06:56;;;;;;;2.60;1.10;;;;;;;3.59;82.89;99665.21;88174;1274;93519;-61
2022/02/05 07:09:06;;;;;;;3.90;1.20;;;;;;;3.54;83.01;99676.54;88206;1274;80990;-68
2022/02/05 07:11:15;;;;;;;5.20;1.40;;;;;;;3.48;82.89;99677.62;88195;1274;81251;-67
2022/02/05 07:13:24;;;;;;;4.70;1.70;;;;;;;3.45;82.85;99688.18;88169;1274;98959;-67
2022/02/05 07:15:41;;;;;;;3.80;1.10;;;;;;;3.42;82.58;99689.65;88223;1274;87022;-68
2022/02/05 07:18:00;;;;;;;4.20;1.40;;;;;;;3.41;82.69;99689.91;88206;1274;93205;-61
2022/02/05 07:20:20;;;;;;;7.20;2.20;;;;;;;3.46;82.66;99693.48;88167;1274;79254;-61
2022/02/05 07:22:43;;;;;;;4.80;1.80;;;;;;;3.48;82.53;99697.75;88158;1275;84018;-61
2022/02/05 07:29:12;;;;;;;6.90;2.10;;;;;;;3.49;82.52;99701.55;88198;1274;99453;-61
2022/02/05 07:29:57;;;;;;;4.20;1.50;;;;;;;3.58;82.47;99716.73;88188;1274;95589;-68
2022/02/05 07:32:16;;;;;;;3.10;1.10;;;;;;;3.59;82.30;99716.24;88184;1274;76480;-68
2022/02/05 07:34:27;;;;;;;4.00;1.30;;;;;;;3.62;82.17;99719.25;88179;1274;81529;-61
2022/02/05 07:36:36;;;;;;;3.80;1.20;;;;;;;3.57;82.12;99722.02;88205;1274;97282;-61
2022/02/05 07:38:45;;;;;;;3.40;1.20;;;;;;;3.60;82.15;99723.82;88246;1274;87090;-68
2022/02/05 07:40:57;;;;;;;4.00;1.50;;;;;;;3.58;81.76;99725.48;88203;1274;95707;-67
2022/02/05 07:43:06;;;;;;;6.60;2.10;;;;;;;3.57;81.59;99732.83;88195;1274;78204;-62
2022/02/05 07:45:19;;;;;;;5.60;1.70;;;;;;;3.61;81.65;99737.64;88177;1274;82088;-60
2022/02/05 07:47:33;;;;;;;3.60;1.10;;;;;;;3.61;81.44;99737.25;88183;1274;96476;-67
2022/02/05 07:49:43;;;;;;;2.50;0.90;;;;;;;3.61;81.24;99742.60;88178;1274;89504;-68
2022/02/05 07:51:55;;;;;;;8.50;1.40;;;;;;;3.65;81.32;99741.52;88188;1274;94160;-67
2022/02/05 07:54:04;;;;;;;4.70;1.10;;;;;;;3.69;81.38;99744.21;88220;1274;79024;-68
2022/02/05 07:56:17;;;;;;;3.40;1.10;;;;;;;3.76;81.15;99745.31;88190;1274;80869;-67
2022/02/05 07:58:27;;;;;;;4.10;1.20;;;;;;;3.85;81.20;99754.13;88212;1274;98308;-60
2022/02/05 08:00:39;;;;;;;4.70;1.20;;;;;;;3.87;81.08;99754.08;88189;1274;88549;-61
2022/02/05 08:02:49;;;;;;;3.90;1.10;;;;;;;3.91;80.80;99757.63;88189;1274;95397;-68
2022/02/05 08:04:58;;;;;;;7.60;1.20;;;;;;;3.92;80.76;99766.03;88140;1276;79984;-68
2022/02/05 08:07:11;;;;;;;6.90;1.40;;;;;;;3.93;80.76;99773.35;88204;1274;83525;-67
2022/02/05 08:09:23;;;;;;;4.80;1.40;;;;;;;3.95;80.78;99771.70;88208;1274;98666;-61
2022/02/05 08:11:38;;;;;;;3.90;1.60;;;;;;;3.94;80.48;99777.88;88219;1274;88279;-60
2022/02/05 08:13:50;;;;;;;3.80;1.10;;;;;;;3.98;79.98;99775.70;88190;1274;95598;-61
2022/02/05 08:16:12;;;;;;;5.00;1.30;;;;;;;4.25;80.28;99776.67;88169;1274;81267;-60
2022/02/05 08:18:22;;;;;;;3.70;1.00;;;;;;;4.28;79.83;99776.05;88217;1274;82447;-61
2022/02/05 08:20:31;;;;;;;3.90;1.20;;;;;;;4.28;80.10;99779.92;88220;1274;98632;-60
2022/02/05 08:22:44;;;;;;;3.10;0.70;;;;;;;4.44;79.99;99785.90;88209;1274;87557;-68
2022/02/05 08:24:53;;;;;;;5.30;1.40;;;;;;;4.61;79.72;99789.13;88178;1274;95963;-68
2022/02/05 08:27:03;;;;;;;5.80;1.50;;;;;;;4.72;79.57;99791.30;88208;1274;78294;-68
2022/02/05 08:29:14;;;;;;;4.10;1.10;;;;;;;4.80;79.51;99792.91;88197;1273;81528;-68
2022/02/05 08:31:27;;;;;;;3.50;1.00;;;;;;;5.00;79.49;99794.28;88224;1274;97903;-68
2022/02/05 08:33:42;;;;;;;6.00;1.00;;;;;;;5.07;79.22;99794.38;88233;1274;88639;-67
2022/02/05 08:35:52;;;;;;;7.10;1.50;;;;;;;5.06;79.14;99798.43;87827;1274;484941;-66
2022/02/05 08:38:02;;;;;;;4.50;1.20;;;;;;;5.02;79.09;99793.00;88187;1274;78866;-62
2022/02/05 08:40:14;;;;;;;5.30;1.50;;;;;;;4.97;78.67;99798.02;88227;1274;82860;-61
2022/02/05 08:42:24;;;;;;;5.70;1.30;;;;;;;5.01;78.76;99810.48;88183;1274;99294;-66
2022/02/05 08:44:33;;;;;;;3.50;1.10;;;;;;;4.98;78.45;99808.80;88212;1274;88347;-68
2022/02/05 08:46:43;;;;;;;5.60;1.20;;;;;;;4.94;78.64;99818.73;88107;1276;94333;-67
2022/02/05 08:48:53;;;;;;;37.00;20.20;;;;;;;4.95;78.40;99816.33;88209;1274;77574;-61
2022/02/05 08:51:05;;;;;;;10.00;3.90;;;;;;;4.97;78.60;99821.41;88204;1274;83211;-61
2022/02/05 08:53:20;;;;;;;3.70;1.40;;;;;;;4.99;78.68;99821.59;88192;1274;98501;-61
2022/02/05 08:55:33;;;;;;;2.70;1.30;;;;;;;5.03;78.57;99819.29;88199;1274;89178;-61
2022/02/05 08:57:43;;;;;;;6.40;1.70;;;;;;;5.05;78.66;99826.41;88205;1274;95996;-61
2022/02/05 08:59:58;;;;;;;5.40;1.20;;;;;;;5.04;78.56;99825.23;88150;1274;79993;-61
2022/02/05 09:02:23;;;;;;;4.80;1.40;;;;;;;5.03;77.98;99828.77;88212;1274;82264;-63
2022/02/05 09:04:39;;;;;;;3.90;1.10;;;;;;;4.97;77.95;99829.11;88177;1274;97943;-68
2022/02/05 09:06:49;;;;;;;2.50;1.20;;;;;;;4.83;78.05;99834.95;88185;1274;88605;-68
2022/02/05 09:09:10;;;;;;;4.80;1.50;;;;;;;4.79;78.08;99837.00;88180;1274;96001;-67
2022/02/05 09:11:34;;;;;;;4.60;1.80;;;;;;;4.73;78.12;99838.98;88193;1274;79706;-69
2022/02/05 09:14:13;;;;;;;7.10;1.50;;;;;;;4.66;78.28;99845.66;88190;1274;82119;-69
2022/02/05 09:16:22;;;;;;;6.30;1.60;;;;;;;4.62;77.89;99847.51;88186;1274;96678;-69
2022/02/05 09:18:33;;;;;;;6.10;2.50;;;;;;;4.54;78.04;99852.69;88222;1274;89823;-63
2022/02/05 09:20:42;;;;;;;4.30;2.00;;;;;;;4.50;78.16;99853.47;88194;1274;94605;-63
2022/02/05 09:22:51;;;;;;;4.90;1.90;;;;;;;4.51;78.26;99856.27;88178;1274;77590;-61
2022/02/05 09:25:02;;;;;;;4.90;1.80;;;;;;;4.46;78.21;99854.77;88190;1274;82331;-61
2022/02/05 09:27:12;;;;;;;4.40;1.50;;;;;;;4.44;78.24;99860.95;88190;1274;97373;-65
2022/02/05 09:29:26;;;;;;;3.10;1.40;;;;;;;4.47;78.25;99868.80;88200;1274;88822;-68
2022/02/05 09:31:36;;;;;;;6.20;1.30;;;;;;;4.53;78.28;99870.63;88177;1274;95622;-68
2022/02/05 09:33:45;;;;;;;7.60;1.60;;;;;;;4.61;78.52;99867.97;88212;1274;79201;-61
2022/02/05 09:35:56;;;;;;;7.00;1.90;;;;;;;4.70;78.46;99871.27;88203;1274;83027;-62
2022/02/05 09:38:06;;;;;;;6.40;1.90;;;;;;;4.85;78.39;99869.55;88188;1274;97339;-65
2022/02/05 09:40:15;;;;;;;6.50;1.80;;;;;;;4.97;78.46;99878.66;88194;1273;89191;-66
2022/02/05 09:42:24;;;;;;;5.90;2.00;;;;;;;5.07;78.44;99874.21;88222;1274;93465;-66
2022/02/05 09:44:34;;;;;;;5.30;2.00;;;;;;;5.10;78.41;99877.23;88183;1274;78101;-70
2022/02/05 09:46:43;;;;;;;6.40;1.80;;;;;;;5.15;78.15;99878.16;88215;1274;81760;-70
2022/02/05 09:48:55;;;;;;;6.40;2.10;;;;;;;5.15;78.09;99879.37;88195;1274;98159;-62
2022/02/05 09:51:07;;;;;;;5.90;2.10;;;;;;;5.15;78.24;99884.52;88221;1274;89839;-62
2022/02/05 09:53:19;;;;;;;7.10;2.00;;;;;;;5.17;77.95;99884.11;88188;1274;95668;-64
2022/02/05 09:55:32;;;;;;;7.10;2.50;;;;;;;5.16;77.83;99883.35;88190;1274;78346;-62
2022/02/05 09:57:41;;;;;;;8.40;2.50;;;;;;;5.10;77.67;99879.57;88215;1274;80948;-66
2022/02/05 09:59:56;;;;;;;5.10;1.90;;;;;;;5.06;77.72;99886.62;88203;1274;99370;-65
2022/02/05 10:02:26;;;;;;;10.40;2.30;;;;;;;5.03;77.73;99886.42;88182;1274;88850;-66
2022/02/05 10:04:54;;;;;;;7.10;2.10;;;;;;;5.01;77.69;99889.73;88169;1274;94704;-66
2022/02/05 10:07:08;;;;;;;5.90;2.10;;;;;;;4.98;77.65;99894.61;88182;1274;77646;-65
2022/02/05 10:09:19;;;;;;;7.10;2.10;;;;;;;4.98;77.70;99892.16;88217;1274;80627;-62
2022/02/05 10:11:30;;;;;;;7.50;2.20;;;;;;;5.01;77.65;99894.87;88217;1274;96798;-61
2022/02/05 10:13:41;;;;;;;5.50;1.70;;;;;;;5.05;77.57;99889.25;88179;1274;86848;-62
2022/02/05 10:15:54;;;;;;;6.30;2.00;;;;;;;5.13;77.83;99887.77;88183;1274;95047;-62
2022/02/05 10:18:03;;;;;;;7.70;2.20;;;;;;;5.27;77.83;99889.57;88182;1274;78953;-66
2022/02/05 10:20:15;;;;;;;5.60;1.80;;;;;;;5.38;77.96;99891.11;88187;1274;81546;-66
2022/02/05 10:22:35;;;;;;;6.10;2.10;;;;;;;5.43;77.86;99894.52;88211;1274;97409;-62
2022/02/05 10:24:53;;;;;;;10.30;2.30;;;;;;;5.47;77.62;99899.20;88191;1274;89260;-62
2022/02/05 10:27:03;;;;;;;5.40;2.10;;;;;;;5.50;77.65;99899.84;88189;1274;95341;-62
2022/02/05 10:29:17;;;;;;;7.40;2.40;;;;;;;5.48;77.60;99903.52;88180;1274;79099;-62
2022/02/05 10:31:25;;;;;;;6.20;2.30;;;;;;;5.43;77.54;99902.13;88177;1274;80474;-61
2022/02/05 10:33:42;;;;;;;4.40;2.20;;;;;;;5.30;77.77;99894.80;88219;1274;95159;-61
2022/02/05 10:36:02;;;;;;;10.10;2.60;;;;;;;5.29;77.90;99894.40;88188;1274;87716;-61
2022/02/05 10:38:35;;;;;;;6.30;2.20;;;;;;;5.21;77.82;99902.09;88229;1274;94767;-62
2022/02/05 10:40:47;;;;;;;6.60;2.50;;;;;;;5.11;77.94;99902.98;88145;1274;79613;-62
2022/02/05 10:43:03;;;;;;;7.20;3.10;;;;;;;5.01;78.20;99903.82;88169;1274;83636;-66
2022/02/05 10:45:13;;;;;;;5.00;2.30;;;;;;;4.93;78.15;99903.70;88166;1274;98681;-66
2022/02/05 10:47:26;;;;;;;6.10;2.40;;;;;;;4.91;78.25;99904.11;88214;1274;86140;-63
2022/02/05 10:49:46;;;;;;;5.90;2.10;;;;;;;4.93;78.57;99906.45;88184;1274;96145;-64
2022/02/05 10:51:59;;;;;;;5.80;2.70;;;;;;;4.99;78.65;99901.61;88199;1274;78248;-62
2022/02/05 10:54:22;;;;;;;6.80;2.90;;;;;;;5.10;78.93;99898.17;88209;1274;83088;-63
2022/02/05 10:56:37;;;;;;;7.00;2.90;;;;;;;5.22;78.90;99902.19;88163;1274;97002;-63
2022/02/05 10:59:14;;;;;;;6.70;2.80;;;;;;;5.35;78.91;99899.81;88198;1274;88264;-73
2022/02/05 11:06:26;;;;;;;6.00;3.10;;;;;;;5.86;78.96;99907.00;88200;1273;83288;-66
2022/02/05 11:08:37;;;;;;;8.20;3.30;;;;;;;5.97;78.87;99914.16;88209;1274;98949;-68
2022/02/05 11:13:29;;;;;;;8.30;3.10;;;;;;;6.19;78.68;99910.09;88194;1274;93770;-68
2022/02/05 11:18:39;;;;;;;5.80;3.10;;;;;;;6.20;78.31;99911.86;88211;1274;82665;-65
2022/02/05 11:20:48;;;;;;;7.60;3.20;;;;;;;6.22;78.09;99911.83;88172;1274;99475;-64
2022/02/05 11:23:05;;;;;;;8.60;3.50;;;;;;;6.22;78.24;99915.77;88205;1274;87412;-64
2022/02/05 11:25:19;;;;;;;6.90;3.30;;;;;;;6.15;78.07;99913.52;88197;1274;95997;-68
2022/02/05 11:27:28;;;;;;;8.10;3.10;;;;;;;5.97;77.75;99908.74;88190;1274;80079;-64
2022/02/05 11:29:38;;;;;;;7.00;3.20;;;;;;;5.84;77.96;99915.41;88208;1272;80747;-64
2022/02/05 11:31:55;;;;;;;8.30;3.90;;;;;;;5.71;77.98;99911.52;88206;1274;98910;-65
2022/02/05 11:34:34;;;;;;;9.50;3.60;;;;;;;5.59;77.80;99911.84;88197;1274;89003;-62
2022/02/05 11:36:58;;;;;;;8.30;4.10;;;;;;;5.46;78.00;99914.20;88032;1277;93475;-68
2022/02/05 11:39:09;;;;;;;8.60;4.00;;;;;;;5.39;77.84;99918.69;88042;1277;79350;-68
2022/02/05 11:41:32;;;;;;;7.90;3.20;;;;;;;5.27;77.92;99921.40;88199;1274;82281;-68
2022/02/05 11:43:45;;;;;;;7.20;3.30;;;;;;;5.21;77.98;99922.08;88205;1274;97221;-64
2022/02/05 11:46:16;;;;;;;7.50;2.80;;;;;;;5.14;77.88;99918.92;88195;1274;88591;-63
2022/02/05 11:48:54;;;;;;;6.60;3.20;;;;;;;5.07;78.04;99924.67;88183;1274;95564;-65
2022/02/05 11:51:16;;;;;;;10.20;4.50;;;;;;;5.02;78.25;99930.73;88154;1274;78669;-64
2022/02/05 11:53:24;;;;;;;7.00;3.30;;;;;;;5.03;78.14;99931.95;88191;1274;83065;-64
2022/02/05 11:55:46;;;;;;;9.90;3.30;;;;;;;5.02;78.26;99931.00;88174;1274;99180;-63
2022/02/05 11:58:02;;;;;;;7.10;2.90;;;;;;;5.00;78.37;99932.27;88191;1274;87025;-64
2022/02/05 12:00:22;;;;;;;8.90;3.40;;;;;;;5.02;78.37;99935.40;88181;1274;94879;-63
2022/02/05 12:02:45;;;;;;;7.80;3.30;;;;;;;5.05;78.33;99929.96;88196;1274;80225;-64